sensor_id;sensor_type;location;lat;lon;timestamp;temperature;humidity
44461;DHT22;30162;53.642;10.640;2022-12-07T00:01:17;6.70;92.70
44461;DHT22;30162;53.642;10.640;2022-12-07T00:03:44;6.50;93.10
44461;DHT22;30162;53.642;10.640;2022-12-07T00:06:12;6.30;93.20
44461;DHT22;30162;53.642;10.640;2022-12-07T00:08:38;6.60;93.20
44461;DHT22;30162;53.642;10.640;2022-12-07T00:11:09;6.70;93.00
44461;DHT22;30162;53.642;10.640;2022-12-07T00:13:35;6.70;93.10
44461;DHT22;30162;53.642;10.640;2022-12-07T00:16:09;6.70;93.30
44461;DHT22;30162;53.642;10.640;2022-12-07T00:18:36;6.80;93.20
44461;DHT22;30162;53.642;10.640;2022-12-07T00:21:15;6.80;93.10
44461;DHT22;30162;53.642;10.640;2022-12-07T00:23:42;6.40;93.50
44461;DHT22;30162;53.642;10.640;2022-12-07T00:26:27;6.40;93.50
44461;DHT22;30162;53.642;10.640;2022-12-07T00:28:57;6.50;93.80
44461;DHT22;30162;53.642;10.640;2022-12-07T00:31:26;6.80;93.50
44461;DHT22;30162;53.642;10.640;2022-12-07T00:33:51;6.70;93.30
44461;DHT22;30162;53.642;10.640;2022-12-07T00:36:20;6.80;93.10
44461;DHT22;30162;53.642;10.640;2022-12-07T00:38:45;6.60;93.10
44461;DHT22;30162;53.642;10.640;2022-12-07T00:41:16;6.60;93.20
44461;DHT22;30162;53.642;10.640;2022-12-07T00:43:43;6.70;93.50
44461;DHT22;30162;53.642;10.640;2022-12-07T00:46:10;6.70;93.50
44461;DHT22;30162;53.642;10.640;2022-12-07T00:48:36;6.80;93.40
44461;DHT22;30162;53.642;10.640;2022-12-07T00:51:03;6.80;93.60
44461;DHT22;30162;53.642;10.640;2022-12-07T00:53:29;6.80;93.40
44461;DHT22;30162;53.642;10.640;2022-12-07T00:58:23;6.60;94.20
44461;DHT22;30162;53.642;10.640;2022-12-07T01:00:49;6.90;94.10
44461;DHT22;30162;53.642;10.640;2022-12-07T01:03:15;6.80;93.80
44461;DHT22;30162;53.642;10.640;2022-12-07T01:05:49;6.80;94.00
44461;DHT22;30162;53.642;10.640;2022-12-07T01:08:15;6.70;94.00
44461;DHT22;30162;53.642;10.640;2022-12-07T01:10:41;6.30;94.80
44461;DHT22;30162;53.642;10.640;2022-12-07T01:13:06;6.60;94.90
44461;DHT22;30162;53.642;10.640;2022-12-07T01:15:32;7.00;94.40
44461;DHT22;30162;53.642;10.640;2022-12-07T01:17:57;7.10;94.10
44461;DHT22;30162;53.642;10.640;2022-12-07T01:20:23;7.30;94.10
44461;DHT22;30162;53.642;10.640;2022-12-07T01:22:48;7.30;94.20
44461;DHT22;30162;53.642;10.640;2022-12-07T01:25:14;7.50;93.80
44461;DHT22;30162;53.642;10.640;2022-12-07T01:27:39;7.50;93.50
44461;DHT22;30162;53.642;10.640;2022-12-07T01:30:06;7.30;93.40
44461;DHT22;30162;53.642;10.640;2022-12-07T01:32:33;7.30;93.80
44461;DHT22;30162;53.642;10.640;2022-12-07T01:34:59;7.10;93.70
44461;DHT22;30162;53.642;10.640;2022-12-07T01:37:24;7.30;93.80
44461;DHT22;30162;53.642;10.640;2022-12-07T01:39:51;7.50;93.80
44461;DHT22;30162;53.642;10.640;2022-12-07T01:42:17;7.70;93.40
44461;DHT22;30162;53.642;10.640;2022-12-07T01:47:47;7.40;93.30
44461;DHT22;30162;53.642;10.640;2022-12-07T01:50:16;7.20;93.60
44461;DHT22;30162;53.642;10.640;2022-12-07T01:52:42;7.20;93.90
44461;DHT22;30162;53.642;10.640;2022-12-07T01:55:12;7.30;93.90
44461;DHT22;30162;53.642;10.640;2022-12-07T01:57:41;7.50;93.70
44461;DHT22;30162;53.642;10.640;2022-12-07T02:00:09;7.60;93.50
44461;DHT22;30162;53.642;10.640;2022-12-07T02:02:41;7.50;93.60
44461;DHT22;30162;53.642;10.640;2022-12-07T02:05:08;7.70;93.60
44461;DHT22;30162;53.642;10.640;2022-12-07T02:07:36;7.60;93.40
44461;DHT22;30162;53.642;10.640;2022-12-07T02:10:35;7.70;93.60
44461;DHT22;30162;53.642;10.640;2022-12-07T02:13:16;7.60;93.60
44461;DHT22;30162;53.642;10.640;2022-12-07T02:15:59;7.80;93.70
44461;DHT22;30162;53.642;10.640;2022-12-07T02:18:55;7.80;93.40
44461;DHT22;30162;53.642;10.640;2022-12-07T02:30:12;7.60;93.70
44461;DHT22;30162;53.642;10.640;2022-12-07T02:35:30;7.50;93.50
44461;DHT22;30162;53.642;10.640;2022-12-07T02:41:02;7.70;93.50
44461;DHT22;30162;53.642;10.640;2022-12-07T02:43:43;7.70;93.80
44461;DHT22;30162;53.642;10.640;2022-12-07T02:46:37;7.50;94.10
44461;DHT22;30162;53.642;10.640;2022-12-07T02:49:02;7.70;93.90
44461;DHT22;30162;53.642;10.640;2022-12-07T02:51:32;7.40;94.00
44461;DHT22;30162;53.642;10.640;2022-12-07T02:53:58;7.20;94.50
44461;DHT22;30162;53.642;10.640;2022-12-07T02:56:48;7.40;94.20
44461;DHT22;30162;53.642;10.640;2022-12-07T02:59:53;7.50;94.20
44461;DHT22;30162;53.642;10.640;2022-12-07T03:02:35;7.60;94.00
44461;DHT22;30162;53.642;10.640;2022-12-07T03:05:28;7.40;94.10
44461;DHT22;30162;53.642;10.640;2022-12-07T03:19:02;7.70;94.20
44461;DHT22;30162;53.642;10.640;2022-12-07T03:21:38;7.90;93.70
44461;DHT22;30162;53.642;10.640;2022-12-07T03:24:17;8.10;93.50
44461;DHT22;30162;53.642;10.640;2022-12-07T03:26:47;8.10;93.10
44461;DHT22;30162;53.642;10.640;2022-12-07T03:29:25;8.00;92.90
44461;DHT22;30162;53.642;10.640;2022-12-07T03:32:00;7.70;93.10
44461;DHT22;30162;53.642;10.640;2022-12-07T03:34:34;7.70;93.30
44461;DHT22;30162;53.642;10.640;2022-12-07T03:40:14;7.50;93.40
44461;DHT22;30162;53.642;10.640;2022-12-07T03:42:41;7.60;93.20
44461;DHT22;30162;53.642;10.640;2022-12-07T03:45:07;7.60;93.20
44461;DHT22;30162;53.642;10.640;2022-12-07T03:47:42;7.50;93.20
44461;DHT22;30162;53.642;10.640;2022-12-07T03:50:41;7.60;93.20
44461;DHT22;30162;53.642;10.640;2022-12-07T03:53:15;7.60;93.10
44461;DHT22;30162;53.642;10.640;2022-12-07T03:55:44;7.30;93.10
44461;DHT22;30162;53.642;10.640;2022-12-07T03:58:13;7.30;93.30
44461;DHT22;30162;53.642;10.640;2022-12-07T04:00:41;7.10;93.20
44461;DHT22;30162;53.642;10.640;2022-12-07T04:03:07;7.10;93.60
44461;DHT22;30162;53.642;10.640;2022-12-07T04:05:32;6.90;93.50
44461;DHT22;30162;53.642;10.640;2022-12-07T04:07:58;6.90;93.80
44461;DHT22;30162;53.642;10.640;2022-12-07T04:10:23;7.10;93.80
44461;DHT22;30162;53.642;10.640;2022-12-07T04:12:49;7.20;93.50
44461;DHT22;30162;53.642;10.640;2022-12-07T04:15:15;7.00;93.50
44461;DHT22;30162;53.642;10.640;2022-12-07T04:17:40;6.90;93.70
44461;DHT22;30162;53.642;10.640;2022-12-07T04:20:06;6.80;93.70
44461;DHT22;30162;53.642;10.640;2022-12-07T04:22:32;6.80;93.90
44461;DHT22;30162;53.642;10.640;2022-12-07T04:24:58;6.80;93.80
44461;DHT22;30162;53.642;10.640;2022-12-07T04:27:23;6.80;93.80
44461;DHT22;30162;53.642;10.640;2022-12-07T04:29:49;7.00;93.70
44461;DHT22;30162;53.642;10.640;2022-12-07T04:32:14;6.90;93.20
44461;DHT22;30162;53.642;10.640;2022-12-07T04:34:40;6.80;93.30
44461;DHT22;30162;53.642;10.640;2022-12-07T04:37:06;6.90;93.30
44461;DHT22;30162;53.642;10.640;2022-12-07T04:39:32;6.60;92.80
44461;DHT22;30162;53.642;10.640;2022-12-07T04:41:58;6.70;93.30
44461;DHT22;30162;53.642;10.640;2022-12-07T04:44:25;6.40;93.40
44461;DHT22;30162;53.642;10.640;2022-12-07T04:46:51;6.40;93.70
44461;DHT22;30162;53.642;10.640;2022-12-07T04:49:18;6.60;93.60
44461;DHT22;30162;53.642;10.640;2022-12-07T04:51:44;6.70;93.10
44461;DHT22;30162;53.642;10.640;2022-12-07T04:54:11;6.70;93.10
44461;DHT22;30162;53.642;10.640;2022-12-07T04:56:36;6.80;93.10
44461;DHT22;30162;53.642;10.640;2022-12-07T04:59:03;6.60;92.90
44461;DHT22;30162;53.642;10.640;2022-12-07T05:01:29;6.60;93.40
44461;DHT22;30162;53.642;10.640;2022-12-07T05:03:55;6.80;93.00
44461;DHT22;30162;53.642;10.640;2022-12-07T05:06:20;6.80;92.90
44461;DHT22;30162;53.642;10.640;2022-12-07T05:08:46;6.80;92.60
44461;DHT22;30162;53.642;10.640;2022-12-07T05:11:12;6.70;92.70
44461;DHT22;30162;53.642;10.640;2022-12-07T05:13:58;6.70;92.80
44461;DHT22;30162;53.642;10.640;2022-12-07T05:16:24;6.70;92.80
44461;DHT22;30162;53.642;10.640;2022-12-07T05:18:49;6.70;92.60
44461;DHT22;30162;53.642;10.640;2022-12-07T05:21:15;6.50;92.60
44461;DHT22;30162;53.642;10.640;2022-12-07T05:23:41;6.30;92.70
44461;DHT22;30162;53.642;10.640;2022-12-07T05:26:06;6.40;92.60
44461;DHT22;30162;53.642;10.640;2022-12-07T05:28:32;6.30;92.80
44461;DHT22;30162;53.642;10.640;2022-12-07T05:30:57;6.30;92.70
44461;DHT22;30162;53.642;10.640;2022-12-07T05:33:23;6.40;92.40
44461;DHT22;30162;53.642;10.640;2022-12-07T05:35:48;6.40;92.40
44461;DHT22;30162;53.642;10.640;2022-12-07T05:38:14;6.40;92.10
44461;DHT22;30162;53.642;10.640;2022-12-07T05:40:39;6.20;92.20
44461;DHT22;30162;53.642;10.640;2022-12-07T05:43:05;6.40;92.20
44461;DHT22;30162;53.642;10.640;2022-12-07T05:45:30;6.30;92.10
44461;DHT22;30162;53.642;10.640;2022-12-07T05:47:56;6.20;92.20
44461;DHT22;30162;53.642;10.640;2022-12-07T05:50:21;6.20;92.30
44461;DHT22;30162;53.642;10.640;2022-12-07T05:52:47;6.30;92.10
44461;DHT22;30162;53.642;10.640;2022-12-07T05:55:14;6.20;92.30
44461;DHT22;30162;53.642;10.640;2022-12-07T05:57:39;6.20;92.00
44461;DHT22;30162;53.642;10.640;2022-12-07T06:00:05;6.10;92.20
44461;DHT22;30162;53.642;10.640;2022-12-07T06:02:31;6.00;91.90
44461;DHT22;30162;53.642;10.640;2022-12-07T06:04:56;6.00;92.10
44461;DHT22;30162;53.642;10.640;2022-12-07T06:07:22;6.00;91.80
44461;DHT22;30162;53.642;10.640;2022-12-07T06:09:48;6.00;92.10
44461;DHT22;30162;53.642;10.640;2022-12-07T06:12:13;5.90;91.90
44461;DHT22;30162;53.642;10.640;2022-12-07T06:14:58;5.90;92.00
44461;DHT22;30162;53.642;10.640;2022-12-07T06:17:24;6.00;92.00
44461;DHT22;30162;53.642;10.640;2022-12-07T06:19:49;5.90;91.70
44461;DHT22;30162;53.642;10.640;2022-12-07T06:22:15;6.00;91.90
44461;DHT22;30162;53.642;10.640;2022-12-07T06:24:42;6.00;92.00
44461;DHT22;30162;53.642;10.640;2022-12-07T06:27:08;5.90;92.30
44461;DHT22;30162;53.642;10.640;2022-12-07T06:29:34;5.90;92.30
44461;DHT22;30162;53.642;10.640;2022-12-07T06:31:59;6.00;92.10
44461;DHT22;30162;53.642;10.640;2022-12-07T06:34:25;6.00;92.00
44461;DHT22;30162;53.642;10.640;2022-12-07T06:36:51;5.90;91.80
44461;DHT22;30162;53.642;10.640;2022-12-07T06:39:20;5.90;92.10
44461;DHT22;30162;53.642;10.640;2022-12-07T06:41:45;5.90;92.30
44461;DHT22;30162;53.642;10.640;2022-12-07T06:44:11;5.90;92.30
44461;DHT22;30162;53.642;10.640;2022-12-07T06:46:37;6.00;92.30
44461;DHT22;30162;53.642;10.640;2022-12-07T06:49:04;5.90;92.10
44461;DHT22;30162;53.642;10.640;2022-12-07T06:51:30;5.90;92.20
44461;DHT22;30162;53.642;10.640;2022-12-07T06:53:56;5.90;92.20
44461;DHT22;30162;53.642;10.640;2022-12-07T06:56:22;5.80;92.40
44461;DHT22;30162;53.642;10.640;2022-12-07T06:58:48;5.70;92.10
44461;DHT22;30162;53.642;10.640;2022-12-07T07:01:16;5.70;92.40
44461;DHT22;30162;53.642;10.640;2022-12-07T07:03:42;5.70;92.20
44461;DHT22;30162;53.642;10.640;2022-12-07T07:06:08;5.50;91.90
44461;DHT22;30162;53.642;10.640;2022-12-07T07:08:34;5.30;92.00
44461;DHT22;30162;53.642;10.640;2022-12-07T07:11:00;5.20;92.30
44461;DHT22;30162;53.642;10.640;2022-12-07T07:13:26;5.20;92.60
44461;DHT22;30162;53.642;10.640;2022-12-07T07:15:52;5.40;92.10
44461;DHT22;30162;53.642;10.640;2022-12-07T07:18:18;5.50;92.20
44461;DHT22;30162;53.642;10.640;2022-12-07T07:20:43;5.30;92.10
44461;DHT22;30162;53.642;10.640;2022-12-07T07:23:09;5.40;91.90
44461;DHT22;30162;53.642;10.640;2022-12-07T07:25:35;5.40;91.90
44461;DHT22;30162;53.642;10.640;2022-12-07T07:28:00;5.40;91.90
44461;DHT22;30162;53.642;10.640;2022-12-07T07:30:26;5.50;91.90
44461;DHT22;30162;53.642;10.640;2022-12-07T07:32:57;5.50;92.00
44461;DHT22;30162;53.642;10.640;2022-12-07T07:35:23;5.50;92.00
44461;DHT22;30162;53.642;10.640;2022-12-07T07:37:49;5.60;91.80
44461;DHT22;30162;53.642;10.640;2022-12-07T07:40:14;5.40;91.70
44461;DHT22;30162;53.642;10.640;2022-12-07T07:42:40;5.40;91.90
44461;DHT22;30162;53.642;10.640;2022-12-07T07:45:06;5.40;91.90
44461;DHT22;30162;53.642;10.640;2022-12-07T07:47:31;5.40;91.50
44461;DHT22;30162;53.642;10.640;2022-12-07T07:49:57;5.40;92.00
44461;DHT22;30162;53.642;10.640;2022-12-07T07:52:23;5.40;92.00
44461;DHT22;30162;53.642;10.640;2022-12-07T07:54:48;5.40;92.10
44461;DHT22;30162;53.642;10.640;2022-12-07T07:57:14;5.40;92.20
44461;DHT22;30162;53.642;10.640;2022-12-07T07:59:41;5.30;92.40
44461;DHT22;30162;53.642;10.640;2022-12-07T08:02:12;5.30;92.20
44461;DHT22;30162;53.642;10.640;2022-12-07T08:04:39;5.40;92.50
44461;DHT22;30162;53.642;10.640;2022-12-07T08:07:04;5.50;92.70
44461;DHT22;30162;53.642;10.640;2022-12-07T08:09:30;5.60;92.40
44461;DHT22;30162;53.642;10.640;2022-12-07T08:11:55;5.80;92.50
44461;DHT22;30162;53.642;10.640;2022-12-07T08:14:21;5.90;92.50
44461;DHT22;30162;53.642;10.640;2022-12-07T08:16:47;5.90;92.20
44461;DHT22;30162;53.642;10.640;2022-12-07T08:19:12;6.00;92.20
44461;DHT22;30162;53.642;10.640;2022-12-07T08:21:38;6.20;92.20
44461;DHT22;30162;53.642;10.640;2022-12-07T08:24:04;6.00;92.10
44461;DHT22;30162;53.642;10.640;2022-12-07T08:26:30;6.20;92.20
44461;DHT22;30162;53.642;10.640;2022-12-07T08:28:55;6.20;91.90
44461;DHT22;30162;53.642;10.640;2022-12-07T08:31:21;6.20;92.20
44461;DHT22;30162;53.642;10.640;2022-12-07T08:33:48;6.10;92.40
44461;DHT22;30162;53.642;10.640;2022-12-07T08:36:14;6.10;92.20
44461;DHT22;30162;53.642;10.640;2022-12-07T08:38:41;6.20;92.40
44461;DHT22;30162;53.642;10.640;2022-12-07T08:41:07;6.20;92.20
44461;DHT22;30162;53.642;10.640;2022-12-07T08:43:33;6.30;92.20
44461;DHT22;30162;53.642;10.640;2022-12-07T08:46:17;6.00;92.30
44461;DHT22;30162;53.642;10.640;2022-12-07T08:48:50;6.10;92.60
44461;DHT22;30162;53.642;10.640;2022-12-07T08:51:16;6.30;92.30
44461;DHT22;30162;53.642;10.640;2022-12-07T08:53:42;6.40;92.20
44461;DHT22;30162;53.642;10.640;2022-12-07T08:56:09;6.20;92.30
44461;DHT22;30162;53.642;10.640;2022-12-07T08:58:37;6.10;92.40
44461;DHT22;30162;53.642;10.640;2022-12-07T09:01:04;6.20;92.80
44461;DHT22;30162;53.642;10.640;2022-12-07T09:03:30;6.50;92.70
44461;DHT22;30162;53.642;10.640;2022-12-07T09:05:57;6.60;92.10
44461;DHT22;30162;53.642;10.640;2022-12-07T09:08:26;6.70;92.20
44461;DHT22;30162;53.642;10.640;2022-12-07T09:10:55;6.80;91.90
44461;DHT22;30162;53.642;10.640;2022-12-07T09:13:20;6.80;91.90
44461;DHT22;30162;53.642;10.640;2022-12-07T09:15:46;6.90;91.90
44461;DHT22;30162;53.642;10.640;2022-12-07T09:18:11;7.10;91.90
44461;DHT22;30162;53.642;10.640;2022-12-07T09:20:37;7.20;91.80
44461;DHT22;30162;53.642;10.640;2022-12-07T09:23:05;7.20;91.80
44461;DHT22;30162;53.642;10.640;2022-12-07T09:25:30;7.10;91.80
44461;DHT22;30162;53.642;10.640;2022-12-07T09:27:57;7.10;91.90
44461;DHT22;30162;53.642;10.640;2022-12-07T09:30:23;7.20;91.80
44461;DHT22;30162;53.642;10.640;2022-12-07T09:32:49;7.30;91.70
44461;DHT22;30162;53.642;10.640;2022-12-07T09:35:14;7.30;91.60
44461;DHT22;30162;53.642;10.640;2022-12-07T09:37:40;7.30;91.90
44461;DHT22;30162;53.642;10.640;2022-12-07T09:40:06;7.00;91.90
44461;DHT22;30162;53.642;10.640;2022-12-07T09:42:38;7.00;91.70
44461;DHT22;30162;53.642;10.640;2022-12-07T09:45:15;7.20;91.80
44461;DHT22;30162;53.642;10.640;2022-12-07T09:47:42;7.30;91.70
44461;DHT22;30162;53.642;10.640;2022-12-07T09:50:21;7.30;91.80
44461;DHT22;30162;53.642;10.640;2022-12-07T09:52:48;7.30;91.70
44461;DHT22;30162;53.642;10.640;2022-12-07T09:55:30;7.30;91.80
44461;DHT22;30162;53.642;10.640;2022-12-07T09:57:56;7.40;91.60
44461;DHT22;30162;53.642;10.640;2022-12-07T10:00:23;7.40;91.60
44461;DHT22;30162;53.642;10.640;2022-12-07T10:03:00;7.50;91.40
44461;DHT22;30162;53.642;10.640;2022-12-07T10:05:40;7.30;91.20
44461;DHT22;30162;53.642;10.640;2022-12-07T10:08:12;7.20;91.50
44461;DHT22;30162;53.642;10.640;2022-12-07T10:10:38;7.10;91.80
44461;DHT22;30162;53.642;10.640;2022-12-07T10:13:13;7.20;91.80
44461;DHT22;30162;53.642;10.640;2022-12-07T10:15:51;7.20;91.50
44461;DHT22;30162;53.642;10.640;2022-12-07T10:18:28;7.40;90.90
44461;DHT22;30162;53.642;10.640;2022-12-07T10:21:17;7.60;91.00
44461;DHT22;30162;53.642;10.640;2022-12-07T10:24:05;7.70;91.10
44461;DHT22;30162;53.642;10.640;2022-12-07T10:28:59;7.90;90.80
44461;DHT22;30162;53.642;10.640;2022-12-07T10:31:25;8.10;90.90
44461;DHT22;30162;53.642;10.640;2022-12-07T10:36:39;8.10;90.70
44461;DHT22;30162;53.642;10.640;2022-12-07T10:39:13;7.80;90.90
44461;DHT22;30162;53.642;10.640;2022-12-07T10:42:02;7.90;91.00
44461;DHT22;30162;53.642;10.640;2022-12-07T10:44:30;8.10;90.90
44461;DHT22;30162;53.642;10.640;2022-12-07T10:47:34;7.90;90.90
44461;DHT22;30162;53.642;10.640;2022-12-07T10:50:03;7.90;91.00
44461;DHT22;30162;53.642;10.640;2022-12-07T10:52:50;7.90;90.80
44461;DHT22;30162;53.642;10.640;2022-12-07T10:55:25;8.00;90.60
44461;DHT22;30162;53.642;10.640;2022-12-07T11:03:32;7.60;90.70
44461;DHT22;30162;53.642;10.640;2022-12-07T11:06:33;7.60;90.70
44461;DHT22;30162;53.642;10.640;2022-12-07T11:21:06;7.60;89.80
44461;DHT22;30162;53.642;10.640;2022-12-07T11:23:46;7.60;89.70
44461;DHT22;30162;53.642;10.640;2022-12-07T11:32:04;8.00;90.10
44461;DHT22;30162;53.642;10.640;2022-12-07T11:39:50;8.10;89.40
44461;DHT22;30162;53.642;10.640;2022-12-07T11:42:22;7.90;89.90
44461;DHT22;30162;53.642;10.640;2022-12-07T11:47:47;7.60;89.90
44461;DHT22;30162;53.642;10.640;2022-12-07T11:50:42;7.80;90.00
44461;DHT22;30162;53.642;10.640;2022-12-07T11:55:43;7.80;89.30
44461;DHT22;30162;53.642;10.640;2022-12-07T12:03:47;8.00;89.40
44461;DHT22;30162;53.642;10.640;2022-12-07T12:06:14;8.00;89.20
44461;DHT22;30162;53.642;10.640;2022-12-07T12:14:29;7.80;88.50
44461;DHT22;30162;53.642;10.640;2022-12-07T12:17:19;7.90;88.90
44461;DHT22;30162;53.642;10.640;2022-12-07T12:23:15;7.50;86.80
44461;DHT22;30162;53.642;10.640;2022-12-07T12:25:48;7.60;88.10
44461;DHT22;30162;53.642;10.640;2022-12-07T12:33:32;7.60;88.70
44461;DHT22;30162;53.642;10.640;2022-12-07T12:36:25;7.50;87.00
44461;DHT22;30162;53.642;10.640;2022-12-07T12:39:08;7.40;86.50
44461;DHT22;30162;53.642;10.640;2022-12-07T12:46:59;7.50;85.70
44461;DHT22;30162;53.642;10.640;2022-12-07T12:51:55;7.40;84.70
44461;DHT22;30162;53.642;10.640;2022-12-07T12:54:24;7.50;84.60
44461;DHT22;30162;53.642;10.640;2022-12-07T12:57:14;7.50;84.40
44461;DHT22;30162;53.642;10.640;2022-12-07T13:02:28;7.30;84.80
44461;DHT22;30162;53.642;10.640;2022-12-07T13:15:38;7.10;83.50
44461;DHT22;30162;53.642;10.640;2022-12-07T13:26:35;7.20;82.60
44461;DHT22;30162;53.642;10.640;2022-12-07T13:31:56;7.00;81.00
44461;DHT22;30162;53.642;10.640;2022-12-07T13:34:38;6.70;81.10
44461;DHT22;30162;53.642;10.640;2022-12-07T13:37:30;6.80;81.40
44461;DHT22;30162;53.642;10.640;2022-12-07T13:39:59;7.00;83.10
44461;DHT22;30162;53.642;10.640;2022-12-07T13:42:30;6.80;81.80
44461;DHT22;30162;53.642;10.640;2022-12-07T13:44:58;6.60;81.60
44461;DHT22;30162;53.642;10.640;2022-12-07T13:47:36;6.70;82.20
44461;DHT22;30162;53.642;10.640;2022-12-07T13:50:30;6.90;81.80
44461;DHT22;30162;53.642;10.640;2022-12-07T13:52:58;6.80;80.20
44461;DHT22;30162;53.642;10.640;2022-12-07T13:55:24;6.80;81.20
44461;DHT22;30162;53.642;10.640;2022-12-07T13:57:52;6.80;81.20
44461;DHT22;30162;53.642;10.640;2022-12-07T14:00:23;6.80;81.50
44461;DHT22;30162;53.642;10.640;2022-12-07T14:03:04;6.70;80.70
44461;DHT22;30162;53.642;10.640;2022-12-07T14:05:46;6.80;80.50
44461;DHT22;30162;53.642;10.640;2022-12-07T14:08:30;6.70;80.10
44461;DHT22;30162;53.642;10.640;2022-12-07T14:10:56;6.60;80.30
44461;DHT22;30162;53.642;10.640;2022-12-07T14:13:34;6.60;80.40
44461;DHT22;30162;53.642;10.640;2022-12-07T14:18:39;6.80;79.60
44461;DHT22;30162;53.642;10.640;2022-12-07T14:21:14;6.90;79.30
44461;DHT22;30162;53.642;10.640;2022-12-07T14:23:40;6.80;79.40
44461;DHT22;30162;53.642;10.640;2022-12-07T14:26:19;6.70;80.40
44461;DHT22;30162;53.642;10.640;2022-12-07T14:28:46;6.70;80.70
44461;DHT22;30162;53.642;10.640;2022-12-07T14:31:15;6.80;78.60
44461;DHT22;30162;53.642;10.640;2022-12-07T14:33:41;6.60;79.10
44461;DHT22;30162;53.642;10.640;2022-12-07T14:36:11;6.60;79.50
44461;DHT22;30162;53.642;10.640;2022-12-07T14:38:37;6.40;79.00
44461;DHT22;30162;53.642;10.640;2022-12-07T14:41:04;6.40;79.40
44461;DHT22;30162;53.642;10.640;2022-12-07T14:43:49;6.50;79.80
44461;DHT22;30162;53.642;10.640;2022-12-07T14:46:15;6.50;79.10
44461;DHT22;30162;53.642;10.640;2022-12-07T14:48:40;6.40;79.70
44461;DHT22;30162;53.642;10.640;2022-12-07T14:51:08;6.40;79.70
44461;DHT22;30162;53.642;10.640;2022-12-07T14:53:40;6.30;79.00
44461;DHT22;30162;53.642;10.640;2022-12-07T14:56:06;6.40;79.80
44461;DHT22;30162;53.642;10.640;2022-12-07T14:58:32;6.30;79.30
44461;DHT22;30162;53.642;10.640;2022-12-07T15:00:58;6.30;79.00
44461;DHT22;30162;53.642;10.640;2022-12-07T15:03:23;6.50;79.70
44461;DHT22;30162;53.642;10.640;2022-12-07T15:05:49;6.40;78.00
44461;DHT22;30162;53.642;10.640;2022-12-07T15:08:14;6.30;78.40
44461;DHT22;30162;53.642;10.640;2022-12-07T15:10:40;6.30;78.60
44461;DHT22;30162;53.642;10.640;2022-12-07T15:13:06;6.10;78.90
44461;DHT22;30162;53.642;10.640;2022-12-07T15:15:51;6.20;79.90
44461;DHT22;30162;53.642;10.640;2022-12-07T15:18:18;6.20;80.30
44461;DHT22;30162;53.642;10.640;2022-12-07T15:20:44;6.00;79.80
44461;DHT22;30162;53.642;10.640;2022-12-07T15:23:10;6.00;79.80
44461;DHT22;30162;53.642;10.640;2022-12-07T15:25:39;6.00;79.80
44461;DHT22;30162;53.642;10.640;2022-12-07T15:28:05;5.80;80.10
44461;DHT22;30162;53.642;10.640;2022-12-07T15:30:31;5.70;80.30
44461;DHT22;30162;53.642;10.640;2022-12-07T15:32:56;5.80;80.20
44461;DHT22;30162;53.642;10.640;2022-12-07T15:35:22;5.80;79.80
44461;DHT22;30162;53.642;10.640;2022-12-07T15:37:47;5.80;79.80
44461;DHT22;30162;53.642;10.640;2022-12-07T15:40:13;5.80;79.80
44461;DHT22;30162;53.642;10.640;2022-12-07T15:42:40;5.70;79.70
44461;DHT22;30162;53.642;10.640;2022-12-07T15:45:06;5.70;79.50
44461;DHT22;30162;53.642;10.640;2022-12-07T15:47:38;5.90;79.80
44461;DHT22;30162;53.642;10.640;2022-12-07T15:50:06;5.90;80.00
44461;DHT22;30162;53.642;10.640;2022-12-07T15:52:32;5.90;79.80
44461;DHT22;30162;53.642;10.640;2022-12-07T15:54:58;5.90;79.70
44461;DHT22;30162;53.642;10.640;2022-12-07T15:57:26;5.50;79.60
44461;DHT22;30162;53.642;10.640;2022-12-07T15:59:51;5.50;79.90
44461;DHT22;30162;53.642;10.640;2022-12-07T16:02:17;5.70;80.70
44461;DHT22;30162;53.642;10.640;2022-12-07T16:04:42;5.80;79.80
44461;DHT22;30162;53.642;10.640;2022-12-07T16:07:08;5.80;80.10
44461;DHT22;30162;53.642;10.640;2022-12-07T16:09:34;5.80;79.40
44461;DHT22;30162;53.642;10.640;2022-12-07T16:11:59;5.80;79.60
44461;DHT22;30162;53.642;10.640;2022-12-07T16:14:26;5.70;79.70
44461;DHT22;30162;53.642;10.640;2022-12-07T16:16:52;5.60;80.00
44461;DHT22;30162;53.642;10.640;2022-12-07T16:19:17;5.50;81.50
44461;DHT22;30162;53.642;10.640;2022-12-07T16:21:43;5.50;80.90
44461;DHT22;30162;53.642;10.640;2022-12-07T16:24:09;5.40;80.50
44461;DHT22;30162;53.642;10.640;2022-12-07T16:26:35;5.40;80.60
44461;DHT22;30162;53.642;10.640;2022-12-07T16:29:01;5.30;81.80
44461;DHT22;30162;53.642;10.640;2022-12-07T16:31:28;5.40;81.70
44461;DHT22;30162;53.642;10.640;2022-12-07T16:33:56;5.30;81.50
44461;DHT22;30162;53.642;10.640;2022-12-07T16:36:22;5.40;81.50
44461;DHT22;30162;53.642;10.640;2022-12-07T16:38:50;5.30;81.00
44461;DHT22;30162;53.642;10.640;2022-12-07T16:41:15;5.30;81.70
44461;DHT22;30162;53.642;10.640;2022-12-07T16:43:41;5.40;81.80
44461;DHT22;30162;53.642;10.640;2022-12-07T16:46:07;5.50;81.10
44461;DHT22;30162;53.642;10.640;2022-12-07T16:48:36;5.20;81.80
44461;DHT22;30162;53.642;10.640;2022-12-07T16:51:07;5.10;81.60
44461;DHT22;30162;53.642;10.640;2022-12-07T16:53:34;5.00;81.60
44461;DHT22;30162;53.642;10.640;2022-12-07T16:55:59;5.00;82.60
44461;DHT22;30162;53.642;10.640;2022-12-07T16:58:25;5.20;81.70
44461;DHT22;30162;53.642;10.640;2022-12-07T17:00:50;5.00;81.00
44461;DHT22;30162;53.642;10.640;2022-12-07T17:03:16;5.10;81.10
44461;DHT22;30162;53.642;10.640;2022-12-07T17:05:43;5.20;81.50
44461;DHT22;30162;53.642;10.640;2022-12-07T17:08:10;5.00;81.30
44461;DHT22;30162;53.642;10.640;2022-12-07T17:10:39;5.20;81.50
44461;DHT22;30162;53.642;10.640;2022-12-07T17:13:05;5.00;81.60
44461;DHT22;30162;53.642;10.640;2022-12-07T17:16:09;4.90;81.60
44461;DHT22;30162;53.642;10.640;2022-12-07T17:18:35;4.90;83.00
44461;DHT22;30162;53.642;10.640;2022-12-07T17:21:07;4.90;83.10
44461;DHT22;30162;53.642;10.640;2022-12-07T17:23:34;5.00;82.00
44461;DHT22;30162;53.642;10.640;2022-12-07T17:26:11;4.90;82.60
44461;DHT22;30162;53.642;10.640;2022-12-07T17:28:38;5.00;82.50
44461;DHT22;30162;53.642;10.640;2022-12-07T17:31:09;5.10;82.50
44461;DHT22;30162;53.642;10.640;2022-12-07T17:33:36;5.20;82.00
44461;DHT22;30162;53.642;10.640;2022-12-07T17:36:12;5.20;82.30
44461;DHT22;30162;53.642;10.640;2022-12-07T17:38:39;5.00;82.80
44461;DHT22;30162;53.642;10.640;2022-12-07T17:41:13;4.90;82.90
44461;DHT22;30162;53.642;10.640;2022-12-07T17:44:00;4.80;83.60
44461;DHT22;30162;53.642;10.640;2022-12-07T17:46:26;4.80;84.20
44461;DHT22;30162;53.642;10.640;2022-12-07T17:48:53;4.80;83.70
44461;DHT22;30162;53.642;10.640;2022-12-07T17:51:19;4.80;83.60
44461;DHT22;30162;53.642;10.640;2022-12-07T17:54:03;4.90;83.30